Silver Spring, Pennsylvania
Current Conditions -  °F | °C
As of 4:53 AM on Sunday 23 Nov 2014 (Local Time) from KLNS Reporting Station
Clear Clear  
Wind Chill: 31°   Ceiling: Unl
Heat Index: 31°   Visibility: 10mi
Dew Point: 23°   Wind: 3mph
Humidity: 72%   Direction: 60°ENE
Pressure: 30.18"   Gusts: NA
Location:  40.06°N, 76.43°W
Report Text: KLNS 230953Z AUTO 06003KT 10SM CLR M01/M05 A3018 RMK AO2 SLP224 T10061050
Loading
Personal Weather Stations






























Interactive Weather Map New forecast layout! Learn more

10-Day Weather Forecast

Advertisements
Track Severe Weather on mobile